createdAt,value
2019-03-13T00:00:54.031Z,75.18
2019-03-13T00:03:24.032Z,75.35
2019-03-13T00:05:53.847Z,75.54
2019-03-13T00:08:24.163Z,75.50
2019-03-13T00:10:54.247Z,75.89
2019-03-13T00:13:24.547Z,76.08
2019-03-13T00:15:54.458Z,76.08
2019-03-13T00:18:24.264Z,76.54
2019-03-13T00:20:54.123Z,76.75
2019-03-13T00:23:23.922Z,77.06
2019-03-13T00:25:53.600Z,76.70
2019-03-13T00:28:23.321Z,76.98
2019-03-13T00:30:53.136Z,77.03
2019-03-13T00:33:23.155Z,77.17
2019-03-13T00:35:52.881Z,77.80
2019-03-13T00:38:22.683Z,78.27
2019-03-13T00:40:52.682Z,78.69
2019-03-13T00:43:22.542Z,78.52
2019-03-13T00:45:52.531Z,78.10
2019-03-13T00:48:22.370Z,78.23
2019-03-13T00:50:52.321Z,78.09
2019-03-13T00:53:22.065Z,78.46
2019-03-13T00:55:51.896Z,79.79
2019-03-13T00:58:21.767Z,80.23
2019-03-13T01:01:16.712Z,80.56
2019-03-13T01:03:57.012Z,80.86
2019-03-13T01:06:29.671Z,80.43
2019-03-13T01:08:59.467Z,81.37
2019-03-13T01:11:30.241Z,81.03
2019-03-13T01:14:00.020Z,81.71
2019-03-13T01:16:30.020Z,81.87
2019-03-13T01:18:59.902Z,82.44
2019-03-13T01:21:29.767Z,83.02
2019-03-13T01:23:59.662Z,83.20
2019-03-13T01:26:29.459Z,83.25
2019-03-13T01:28:59.195Z,83.38
2019-03-13T01:32:06.375Z,84.05
2019-03-13T01:34:45.841Z,84.04
2019-03-13T01:37:15.955Z,83.46
2019-03-13T01:39:45.877Z,83.61
2019-03-13T01:42:15.791Z,83.66
2019-03-13T01:44:45.650Z,84.05
2019-03-13T01:47:15.527Z,84.29
2019-03-13T01:49:45.399Z,84.77
2019-03-13T01:52:15.218Z,85.64
2019-03-13T01:54:44.950Z,86.21
2019-03-13T01:57:14.991Z,86.43
2019-03-13T01:59:44.731Z,87.25
2019-03-13T02:02:14.621Z,87.49
2019-03-13T02:04:44.334Z,87.47
2019-03-13T02:07:14.300Z,87.81
2019-03-13T02:09:44.048Z,88.39
2019-03-13T02:12:16.117Z,89.12
2019-03-13T02:14:46.088Z,89.45
2019-03-13T02:17:15.864Z,89.84
2019-03-13T02:19:45.765Z,90.03
2019-03-13T02:22:15.636Z,89.85
2019-03-13T02:24:45.486Z,89.93
2019-03-13T02:27:15.428Z,90.33
2019-03-13T02:29:45.281Z,90.63
2019-03-13T02:32:15.057Z,91.32
2019-03-13T02:34:44.762Z,91.99
2019-03-13T02:37:14.744Z,92.17
2019-03-13T02:39:44.603Z,92.24
2019-03-13T02:42:14.340Z,90.90
2019-03-13T02:44:44.298Z,91.00
2019-03-13T02:47:18.381Z,90.08
2019-03-13T02:49:45.518Z,90.29
2019-03-13T02:52:15.464Z,90.38
2019-03-13T02:54:45.137Z,90.85
2019-03-13T02:57:14.862Z,90.48
2019-03-13T02:59:44.732Z,90.98
2019-03-13T03:02:23.065Z,91.53
2019-03-13T03:04:53.060Z,91.77
2019-03-13T03:07:22.723Z,91.25
2019-03-13T03:09:52.526Z,90.93
2019-03-13T03:12:22.392Z,90.37
2019-03-13T03:15:10.069Z,90.10
2019-03-13T03:17:39.935Z,89.96
2019-03-13T03:20:12.762Z,89.52
2019-03-13T03:22:42.483Z,89.56
2019-03-13T03:25:12.906Z,89.30
2019-03-13T03:27:42.939Z,89.27
2019-03-13T03:30:19.516Z,89.47
2019-03-13T03:32:49.386Z,89.94
2019-03-13T03:35:19.223Z,90.03
2019-03-13T03:37:49.152Z,90.58
2019-03-13T03:40:22.478Z,90.75
2019-03-13T03:42:50.736Z,91.04
2019-03-13T03:45:21.018Z,91.00
2019-03-13T03:47:50.924Z,91.19
2019-03-13T03:50:20.671Z,90.82
2019-03-13T03:52:50.293Z,90.44
2019-03-13T03:55:20.291Z,90.18
2019-03-13T03:57:49.915Z,90.23
2019-03-13T04:00:19.928Z,90.08
2019-03-13T04:02:49.821Z,90.19
2019-03-13T04:05:20.154Z,90.24
2019-03-13T04:07:49.794Z,89.89
2019-03-13T04:10:19.616Z,89.95
2019-03-13T04:12:49.648Z,90.16
2019-03-13T04:15:19.444Z,90.41
2019-03-13T04:17:49.387Z,90.44
2019-03-13T04:20:20.641Z,90.30
2019-03-13T04:22:50.386Z,89.99
2019-03-13T04:25:35.219Z,89.83
2019-03-13T04:28:05.801Z,89.15
2019-03-13T04:30:35.839Z,88.22
2019-03-13T04:33:05.651Z,87.12
2019-03-13T04:35:35.645Z,86.57
2019-03-13T04:38:05.377Z,85.02
2019-03-13T04:40:35.101Z,84.55
2019-03-13T04:43:05.026Z,84.98
2019-03-13T04:45:34.846Z,84.71
2019-03-13T04:48:05.017Z,84.55
2019-03-13T04:50:34.676Z,84.20
2019-03-13T04:53:04.595Z,84.06
2019-03-13T04:55:34.316Z,83.61
2019-03-13T04:58:04.118Z,83.75
2019-03-13T05:00:33.970Z,83.93
2019-03-13T05:03:03.753Z,83.84
2019-03-13T05:05:54.049Z,83.71
2019-03-13T05:08:45.355Z,83.81
2019-03-13T05:11:13.900Z,83.35
2019-03-13T05:13:43.748Z,82.63
2019-03-13T05:16:13.557Z,82.57
2019-03-13T05:18:43.534Z,81.41
2019-03-13T05:21:13.387Z,81.46
2019-03-13T05:23:43.333Z,81.59
2019-03-13T05:26:14.483Z,81.23
2019-03-13T05:28:44.371Z,80.18
2019-03-13T05:31:14.348Z,79.62
2019-03-13T05:33:44.106Z,79.17
2019-03-13T05:36:16.744Z,78.70
2019-03-13T05:38:45.776Z,77.95
2019-03-13T05:41:15.588Z,77.80
2019-03-13T05:43:45.301Z,77.64
2019-03-13T05:46:15.107Z,78.13
2019-03-13T05:48:44.760Z,78.20
2019-03-13T05:51:14.557Z,78.15
2019-03-13T05:53:44.445Z,77.92
2019-03-13T05:56:14.215Z,78.11
2019-03-13T05:58:44.101Z,78.23
2019-03-13T06:01:14.165Z,77.01
2019-03-13T06:03:43.947Z,77.71
2019-03-13T06:06:13.985Z,77.80
2019-03-13T06:08:43.731Z,77.97
2019-03-13T06:11:13.481Z,77.27
2019-03-13T06:13:43.305Z,77.10
2019-03-13T06:16:13.173Z,77.19
2019-03-13T06:18:42.980Z,77.46
2019-03-13T06:21:12.960Z,77.31
2019-03-13T06:23:42.851Z,77.79
2019-03-13T06:26:12.617Z,77.72
2019-03-13T06:28:42.490Z,77.03
2019-03-13T06:31:12.569Z,77.24
2019-03-13T06:33:42.386Z,76.91
2019-03-13T06:36:12.332Z,77.45
2019-03-13T06:38:42.260Z,77.78
2019-03-13T06:41:12.046Z,77.70
2019-03-13T06:43:41.891Z,76.05
2019-03-13T06:46:11.616Z,76.31
2019-03-13T06:48:41.365Z,76.22
2019-03-13T06:51:11.145Z,76.06
2019-03-13T06:53:41.086Z,76.12
2019-03-13T06:56:10.943Z,75.45
2019-03-13T06:58:55.779Z,75.77
2019-03-13T07:01:32.648Z,74.85
2019-03-13T07:04:30.720Z,75.01
2019-03-13T07:07:25.252Z,76.01
2019-03-13T07:10:03.625Z,75.36
2019-03-13T07:13:03.902Z,74.68
2019-03-13T07:15:58.680Z,74.88
2019-03-13T07:18:45.869Z,74.97
2019-03-13T07:21:43.696Z,75.77
2019-03-13T07:24:35.171Z,75.73
2019-03-13T07:27:22.665Z,76.06
2019-03-13T07:30:09.802Z,75.83
2019-03-13T07:33:01.620Z,76.31
2019-03-13T07:35:49.086Z,75.54
2019-03-13T07:38:40.881Z,76.18
2019-03-13T07:41:30.888Z,75.81
2019-03-13T07:44:21.026Z,76.33
2019-03-13T07:47:24.735Z,77.40
2019-03-13T07:50:09.345Z,77.08
2019-03-13T07:53:13.406Z,76.34
2019-03-13T07:55:50.641Z,76.69
2019-03-13T07:58:48.285Z,76.13
2019-03-13T08:01:43.905Z,76.27
2019-03-13T08:04:24.826Z,76.56
2019-03-13T08:07:12.126Z,75.96
2019-03-13T08:10:03.652Z,76.04
2019-03-13T08:13:04.498Z,76.35
2019-03-13T08:15:54.014Z,74.12
2019-03-13T08:18:41.399Z,74.03
2019-03-13T08:21:38.952Z,73.87
2019-03-13T08:24:29.043Z,71.99
2019-03-13T08:27:16.841Z,70.80
2019-03-13T08:29:57.235Z,68.24
2019-03-13T08:32:45.313Z,69.77
2019-03-13T08:35:30.472Z,70.46
2019-03-13T08:38:19.159Z,71.94
2019-03-13T08:41:01.845Z,71.05
2019-03-13T08:43:51.707Z,72.38
2019-03-13T08:46:32.426Z,71.64
2019-03-13T08:49:18.558Z,71.94
2019-03-13T08:51:58.285Z,72.42
2019-03-13T08:54:41.557Z,72.10
2019-03-13T08:57:24.014Z,72.22
2019-03-13T09:00:22.114Z,71.83
2019-03-13T09:03:01.183Z,72.00
2019-03-13T09:05:52.722Z,72.48
2019-03-13T09:08:56.501Z,72.61
2019-03-13T09:11:48.515Z,71.97
2019-03-13T09:14:29.686Z,72.39
2019-03-13T09:17:18.442Z,72.48
2019-03-13T09:20:13.327Z,72.33
2019-03-13T09:22:49.260Z,71.73
2019-03-13T09:25:38.022Z,72.78
2019-03-13T09:28:45.936Z,72.04
2019-03-13T09:31:25.646Z,70.80
2019-03-13T09:34:17.619Z,68.85
2019-03-13T09:36:57.489Z,68.54
2019-03-13T09:39:35.534Z,65.91
2019-03-13T09:42:14.290Z,66.96
2019-03-13T09:45:03.043Z,67.93
2019-03-13T09:47:57.946Z,67.84
2019-03-13T09:50:36.146Z,66.46
2019-03-13T09:53:13.384Z,65.31
2019-03-13T09:55:52.343Z,63.91
2019-03-13T09:58:44.118Z,62.66
2019-03-13T10:01:25.999Z,64.16
2019-03-13T10:04:20.477Z,65.57
2019-03-13T10:07:12.617Z,66.41
2019-03-13T10:10:10.674Z,65.20
2019-03-13T10:13:02.439Z,63.31
2019-03-13T10:15:51.286Z,63.01
2019-03-13T10:18:40.008Z,62.99
2019-03-13T10:21:31.628Z,62.69
2019-03-13T10:24:26.413Z,63.19
2019-03-13T10:27:24.477Z,64.14
2019-03-13T10:30:08.189Z,63.25
2019-03-13T10:32:47.423Z,61.92
2019-03-13T10:35:39.061Z,62.95
2019-03-13T10:38:37.051Z,64.37
2019-03-13T10:41:28.608Z,63.36
2019-03-13T10:44:09.002Z,62.81
2019-03-13T10:47:12.741Z,61.54
2019-03-13T10:49:51.218Z,62.71
2019-03-13T10:52:39.760Z,63.88
2019-03-13T10:55:38.199Z,64.65
2019-03-13T10:58:26.674Z,64.96
2019-03-13T11:01:18.388Z,65.01
2019-03-13T11:04:07.769Z,65.51
2019-03-13T11:06:54.887Z,64.85
2019-03-13T11:09:34.433Z,64.94
2019-03-13T11:12:32.084Z,66.17
2019-03-13T11:15:20.773Z,66.42
2019-03-13T11:18:00.046Z,66.51
2019-03-13T11:20:48.737Z,66.86
2019-03-13T11:23:37.566Z,67.02
2019-03-13T11:26:32.504Z,68.36
2019-03-13T11:29:21.236Z,67.26
2019-03-13T11:32:28.185Z,66.74
2019-03-13T11:35:15.661Z,66.47
2019-03-13T11:38:07.174Z,65.81
2019-03-13T11:40:58.770Z,65.90
2019-03-13T11:44:05.821Z,65.33
2019-03-13T11:46:44.443Z,65.47
2019-03-13T11:49:31.650Z,66.32
2019-03-13T11:52:23.436Z,66.04
2019-03-13T11:55:12.098Z,66.14
2019-03-13T11:58:00.728Z,66.60
2019-03-13T12:00:46.674Z,65.92
2019-03-13T12:03:35.278Z,66.11
2019-03-13T12:06:29.945Z,66.70
2019-03-13T12:09:09.309Z,66.66
2019-03-13T12:12:02.567Z,66.85
2019-03-13T12:14:57.123Z,66.96
2019-03-13T12:17:40.552Z,66.19
2019-03-13T12:20:32.408Z,66.70
2019-03-13T12:23:37.771Z,66.80
2019-03-13T12:26:43.280Z,66.40
2019-03-13T12:29:30.372Z,67.22
2019-03-13T12:32:08.705Z,67.98
2019-03-13T12:34:57.230Z,67.34
2019-03-13T12:37:52.200Z,66.04
2019-03-13T12:40:39.690Z,66.46
2019-03-13T12:43:29.624Z,66.51
2019-03-13T12:46:30.681Z,66.96
2019-03-13T12:49:08.066Z,66.29
2019-03-13T12:51:59.601Z,64.60
2019-03-13T12:54:51.416Z,64.63
2019-03-13T12:57:58.601Z,64.65
2019-03-13T13:00:36.079Z,65.38
2019-03-13T13:03:25.049Z,65.04
2019-03-13T13:06:19.461Z,64.73
2019-03-13T13:09:07.160Z,64.28
2019-03-13T13:11:45.728Z,64.23
2019-03-13T13:14:52.267Z,64.26
2019-03-13T13:17:34.311Z,64.61
2019-03-13T13:20:05.658Z,66.78
2019-03-13T13:22:35.472Z,66.78
2019-03-13T13:25:06.387Z,66.47
2019-03-13T13:27:36.176Z,67.01
2019-03-13T13:30:06.720Z,66.98
2019-03-13T13:32:37.849Z,64.86
2019-03-13T13:35:09.176Z,61.79
2019-03-13T13:37:39.090Z,59.13
2019-03-13T13:40:10.606Z,57.93
2019-03-13T13:42:40.410Z,55.83
2019-03-13T13:45:33.009Z,55.22
2019-03-13T13:48:03.015Z,54.83
2019-03-13T13:50:32.934Z,55.52
2019-03-13T13:53:02.938Z,55.80
2019-03-13T13:55:32.855Z,55.91
2019-03-13T13:58:02.761Z,56.91
2019-03-13T14:00:32.782Z,53.81
2019-03-13T14:03:02.906Z,53.08
2019-03-13T14:06:06.349Z,54.57
2019-03-13T14:09:05.047Z,55.22
2019-03-13T14:12:16.082Z,56.33
2019-03-13T14:14:58.550Z,56.24
2019-03-13T14:17:35.675Z,55.24
2019-03-13T14:20:44.685Z,56.20
2019-03-13T14:23:42.615Z,55.86
2019-03-13T14:26:50.466Z,55.25
2019-03-13T14:34:02.181Z,55.33
2019-03-13T14:36:29.913Z,56.30
2019-03-13T14:39:22.692Z,56.01
2019-03-13T14:45:49.186Z,55.44
2019-03-13T14:49:08.179Z,55.61
2019-03-13T14:51:46.929Z,55.14
2019-03-13T14:55:16.229Z,55.78
2019-03-13T14:58:13.093Z,55.96
2019-03-13T15:01:19.845Z,55.22
2019-03-13T15:08:09.553Z,55.87
2019-03-13T15:11:00.204Z,56.81
2019-03-13T15:14:24.801Z,56.84
2019-03-13T15:17:43.290Z,56.17
2019-03-13T15:20:47.392Z,56.40
2019-03-13T15:23:26.710Z,58.55
2019-03-13T15:26:32.190Z,58.19
2019-03-13T15:29:22.424Z,58.40
2019-03-13T15:32:09.020Z,58.33
2019-03-13T15:38:27.701Z,60.26
2019-03-13T15:41:29.688Z,59.49
2019-03-13T15:44:38.876Z,60.46
2019-03-13T15:48:12.929Z,60.71
2019-03-13T15:50:23.533Z,61.31
2019-03-13T15:53:38.702Z,62.56
2019-03-13T15:56:53.851Z,63.74
2019-03-13T15:59:51.100Z,65.41
2019-03-13T16:02:30.370Z,66.34
2019-03-13T16:05:24.618Z,67.39
2019-03-13T16:08:13.366Z,68.37
2019-03-13T16:11:28.712Z,69.24
2019-03-13T16:14:17.818Z,70.12
2019-03-13T16:17:10.211Z,71.28
2019-03-13T16:19:56.714Z,72.05
2019-03-13T16:22:43.812Z,73.16
2019-03-13T16:25:29.137Z,74.47
2019-03-13T16:28:37.627Z,75.26
2019-03-13T16:31:26.441Z,75.97
2019-03-13T16:34:19.651Z,76.49
2019-03-13T16:37:29.591Z,77.38
2019-03-13T16:40:16.162Z,77.95
2019-03-13T16:43:17.767Z,78.92
2019-03-13T16:46:16.996Z,79.26
2019-03-13T16:49:20.684Z,79.95
2019-03-13T16:52:15.827Z,80.77
2019-03-13T16:55:19.073Z,80.83
2019-03-13T16:57:54.910Z,82.11
2019-03-13T17:01:10.504Z,82.29
2019-03-13T17:04:03.127Z,82.78
2019-03-13T17:10:39.047Z,83.72
2019-03-13T17:13:13.216Z,83.66
2019-03-13T17:19:24.154Z,84.49
2019-03-13T17:22:28.896Z,85.57
2019-03-13T17:25:19.083Z,86.65
2019-03-13T17:28:05.315Z,86.55
2019-03-13T17:30:59.330Z,86.83
2019-03-13T17:33:44.228Z,86.29
2019-03-13T17:36:45.097Z,85.94
2019-03-13T17:39:56.436Z,85.65
2019-03-13T17:46:13.290Z,85.63
2019-03-13T17:49:00.150Z,85.57
2019-03-13T17:52:17.940Z,86.15
2019-03-13T17:55:04.333Z,85.96
2019-03-13T17:58:04.451Z,86.42
2019-03-13T18:01:01.392Z,86.78
2019-03-13T18:07:24.248Z,87.60
2019-03-13T18:10:42.994Z,87.99
2019-03-13T18:13:42.444Z,88.11
2019-03-13T18:16:45.070Z,88.42
2019-03-13T18:22:51.673Z,90.13
2019-03-13T18:25:41.635Z,90.64
2019-03-13T18:28:11.544Z,91.46
2019-03-13T18:30:41.399Z,91.18
2019-03-13T18:33:11.448Z,90.96
2019-03-13T18:35:41.448Z,90.48
2019-03-13T18:38:12.434Z,90.03
2019-03-13T18:40:42.191Z,90.07
2019-03-13T18:43:12.568Z,89.82
2019-03-13T18:45:42.583Z,89.51
2019-03-13T18:48:12.480Z,88.52
2019-03-13T18:50:42.590Z,86.84
2019-03-13T18:53:12.546Z,86.10
2019-03-13T18:55:43.011Z,85.26
2019-03-13T18:58:14.306Z,84.03
2019-03-13T19:00:44.225Z,84.03
2019-03-13T19:03:14.073Z,83.54
2019-03-13T19:05:44.125Z,83.43
2019-03-13T19:08:14.689Z,84.15
2019-03-13T19:10:44.743Z,84.48
2019-03-13T19:13:14.784Z,84.45
2019-03-13T19:15:45.064Z,84.34
2019-03-13T19:18:15.102Z,84.16
2019-03-13T19:20:44.922Z,84.92
2019-03-13T19:23:14.846Z,84.88
2019-03-13T19:25:44.699Z,84.81
2019-03-13T19:28:14.589Z,84.74
2019-03-13T19:30:44.329Z,84.51
2019-03-13T19:33:14.764Z,84.58
2019-03-13T19:35:44.542Z,84.77
2019-03-13T19:38:14.933Z,84.84
2019-03-13T19:40:44.915Z,84.87
2019-03-13T19:43:16.042Z,85.25
2019-03-13T19:45:45.999Z,86.10
2019-03-13T19:48:15.942Z,86.29
2019-03-13T19:50:47.012Z,86.96
2019-03-13T19:53:17.251Z,87.49
2019-03-13T19:55:46.983Z,87.86
2019-03-13T19:58:16.979Z,88.70
2019-03-13T20:00:47.009Z,89.49
2019-03-13T20:03:16.834Z,89.32
2019-03-13T20:05:46.975Z,89.41
2019-03-13T20:08:17.095Z,89.46
2019-03-13T20:10:46.801Z,89.18
2019-03-13T20:13:16.795Z,89.04
2019-03-13T20:15:47.890Z,88.98
2019-03-13T20:18:17.876Z,88.79
2019-03-13T20:20:47.968Z,88.85
2019-03-13T20:23:17.787Z,89.24
2019-03-13T20:25:47.778Z,89.90
2019-03-13T20:28:17.498Z,89.76
2019-03-13T20:30:47.176Z,90.00
2019-03-13T20:33:17.668Z,88.92
2019-03-13T20:35:47.926Z,88.32
2019-03-13T20:38:19.225Z,89.52
2019-03-13T20:40:49.307Z,90.07
2019-03-13T20:43:19.232Z,91.09
2019-03-13T20:45:49.608Z,91.58
2019-03-13T20:48:19.333Z,92.13
2019-03-13T20:50:49.268Z,92.63
2019-03-13T20:53:20.357Z,93.45
2019-03-13T20:55:50.226Z,93.71
2019-03-13T20:58:20.020Z,92.94
2019-03-13T21:00:51.107Z,93.10
2019-03-13T21:03:20.983Z,93.19
2019-03-13T21:05:50.959Z,93.42
2019-03-13T21:08:20.658Z,93.61
2019-03-13T21:10:50.535Z,93.41
2019-03-13T21:13:20.347Z,93.91
2019-03-13T21:15:50.322Z,93.73
2019-03-13T21:18:20.087Z,93.86
2019-03-13T21:20:49.889Z,93.80
2019-03-13T21:23:19.987Z,94.16
2019-03-13T21:25:49.776Z,94.29
2019-03-13T21:28:19.687Z,94.00
2019-03-13T21:30:49.465Z,94.13
2019-03-13T21:33:19.253Z,94.49
2019-03-13T21:35:49.087Z,94.62
2019-03-13T21:38:18.919Z,94.79
2019-03-13T21:40:48.931Z,95.05
2019-03-13T21:43:19.001Z,95.23
2019-03-13T21:45:49.049Z,95.05
2019-03-13T21:48:19.013Z,95.23
2019-03-13T21:50:50.383Z,94.69
2019-03-13T21:53:20.405Z,93.69
2019-03-13T21:55:50.291Z,93.78
2019-03-13T21:58:20.183Z,94.32
2019-03-13T22:00:50.286Z,94.61
2019-03-13T22:03:28.719Z,93.86
2019-03-13T22:05:51.704Z,93.52
2019-03-13T22:08:21.480Z,93.95
2019-03-13T22:10:51.221Z,93.99
2019-03-13T22:13:21.149Z,94.24
2019-03-13T22:15:51.080Z,94.45
2019-03-13T22:18:20.878Z,94.26
2019-03-13T22:20:50.875Z,94.25
2019-03-13T22:23:20.905Z,94.55
2019-03-13T22:25:50.771Z,94.65
2019-03-13T22:28:20.621Z,94.45
2019-03-13T22:30:50.558Z,94.04
2019-03-13T22:33:20.630Z,94.69
2019-03-13T22:35:50.391Z,95.09
2019-03-13T22:38:20.279Z,95.41
2019-03-13T22:40:49.958Z,95.51
2019-03-13T22:43:19.719Z,95.87
2019-03-13T22:45:49.436Z,96.39
2019-03-13T22:48:19.389Z,96.75
2019-03-13T22:50:49.275Z,97.23
2019-03-13T22:53:19.095Z,97.42
2019-03-13T22:55:48.942Z,97.22
2019-03-13T22:58:18.694Z,97.63
2019-03-13T23:00:57.350Z,97.91
2019-03-13T23:03:28.652Z,97.81
2019-03-13T23:05:59.126Z,97.46
2019-03-13T23:08:31.147Z,97.43
2019-03-13T23:11:00.469Z,97.44
2019-03-13T23:13:30.303Z,97.38
2019-03-13T23:16:00.167Z,97.46
2019-03-13T23:18:30.141Z,97.80
2019-03-13T23:20:59.840Z,97.27
2019-03-13T23:23:29.813Z,97.13
2019-03-13T23:25:59.706Z,97.29
2019-03-13T23:28:29.681Z,97.17
2019-03-13T23:30:59.646Z,97.06
2019-03-13T23:33:29.541Z,96.95
2019-03-13T23:35:59.365Z,96.72
2019-03-13T23:38:30.412Z,96.39
2019-03-13T23:41:00.188Z,96.91
2019-03-13T23:43:30.023Z,97.07
2019-03-13T23:46:00.027Z,97.00
2019-03-13T23:48:29.857Z,97.17
2019-03-13T23:50:59.881Z,97.17
2019-03-13T23:53:29.785Z,97.10
2019-03-13T23:55:59.584Z,97.12
2019-03-13T23:58:29.668Z,97.24
